Time;durP1;ratioP1;P1;durP2;ratioP2;P2;SDS_P1;SDS_P2;PMS_P1;PMS_P2;Temp;Humidity;BMP_temperature;BMP_pressure;BME280_temperature;BME280_humidity;BME280_pressure;Samples;Min_cycle;Max_cycle;Signal;HPM_P1;HPM_P2
2022/04/04 00:00:00;;;;;;;7.30;3.20;;;23.00;51.00;;;;;;215854;1294;23255;-47
2022/04/04 00:05:26;;;;;;;5.70;3.20;;;22.80;50.30;;;;;;215373;1294;23132;-48
2022/04/04 00:10:29;;;;;;;6.40;2.90;;;22.70;50.30;;;;;;215806;1293;24363;-47
2022/04/04 00:15:34;;;;;;;6.00;3.40;;;22.70;50.30;;;;;;215763;1294;24359;-46
2022/04/04 00:20:41;;;;;;;6.70;3.00;;;22.60;50.20;;;;;;215686;1294;25508;-47
2022/04/04 00:25:46;;;;;;;6.60;3.20;;;22.60;50.20;;;;;;216046;1293;25299;-48
2022/04/04 00:30:49;;;;;;;5.90;2.90;;;22.50;50.30;;;;;;215879;1293;22761;-48
2022/04/04 00:35:53;;;;;;;7.30;3.00;;;22.50;50.30;;;;;;215736;1293;22613;-50
2022/04/04 00:40:57;;;;;;;7.00;3.30;;;22.50;50.50;;;;;;215845;1294;24280;-48
2022/04/04 00:46:00;;;;;;;6.50;2.70;;;22.60;51.00;;;;;;215603;1293;25283;-46
2022/04/04 00:51:04;;;;;;;5.60;3.00;;;23.00;50.00;;;;;;215872;1294;24444;-48
2022/04/04 00:56:09;;;;;;;5.60;2.60;;;23.30;49.30;;;;;;215576;1293;22625;-50
2022/04/04 01:01:12;;;;;;;4.90;2.60;;;23.50;48.60;;;;;;215044;1293;26536;-47
2022/04/04 01:06:20;;;;;;;4.60;2.80;;;23.70;48.10;;;;;;215729;1293;22652;-47
2022/04/04 01:11:36;;;;;;;5.40;2.80;;;23.70;47.90;;;;;;215736;1293;24463;-47
2022/04/04 01:16:44;;;;;;;4.30;2.40;;;23.70;47.60;;;;;;215931;1294;22570;-47
2022/04/04 01:21:59;;;;;;;5.60;3.00;;;23.80;47.50;;;;;;215971;1294;22888;-49
2022/04/04 01:27:11;;;;;;;7.10;2.70;;;23.80;47.40;;;;;;215301;1296;24282;-48
2022/04/04 01:32:25;;;;;;;4.80;2.50;;;23.90;47.40;;;;;;215994;1294;24408;-48
2022/04/04 01:37:44;;;;;;;5.50;2.80;;;23.90;47.20;;;;;;215879;1294;25670;-48
2022/04/04 01:42:54;;;;;;;4.60;2.50;;;23.90;47.10;;;;;;215887;1293;24355;-47
2022/04/04 01:48:02;;;;;;;5.90;2.50;;;23.90;46.90;;;;;;215738;1293;22520;-48
2022/04/04 01:53:26;;;;;;;5.40;2.20;;;23.90;46.70;;;;;;215616;1293;22575;-48
2022/04/04 01:58:39;;;;;;;4.20;2.30;;;23.90;46.80;;;;;;215604;1293;22678;-49
2022/04/04 02:03:58;;;;;;;4.80;2.60;;;23.80;46.70;;;;;;215942;1294;22582;-50
2022/04/04 02:09:06;;;;;;;4.00;2.30;;;23.80;46.70;;;;;;215914;1293;25361;-51
2022/04/04 02:14:12;;;;;;;5.70;2.50;;;23.70;47.10;;;;;;215920;1293;24485;-50
2022/04/04 02:19:22;;;;;;;4.90;2.10;;;23.60;46.80;;;;;;215640;1294;22563;-46
2022/04/04 02:24:29;;;;;;;4.70;2.40;;;23.60;47.00;;;;;;215869;1294;22805;-46
2022/04/04 02:29:41;;;;;;;5.10;2.30;;;23.50;47.20;;;;;;215578;1293;27821;-46
2022/04/04 02:34:56;;;;;;;4.20;2.00;;;23.30;47.00;;;;;;215091;1293;22625;-49
2022/04/04 02:40:05;;;;;;;3.90;2.20;;;23.20;47.40;;;;;;215683;1293;22755;-45
2022/04/04 02:45:14;;;;;;;4.70;2.40;;;23.20;47.60;;;;;;215889;1293;22572;-46
2022/04/04 02:50:21;;;;;;;3.90;2.00;;;23.10;47.70;;;;;;215645;1293;22557;-46
2022/04/04 03:01:00;;;;;;;4.30;2.00;;;22.90;48.00;;;;;;215652;1293;22681;-47
2022/04/04 03:06:16;;;;;;;4.00;2.00;;;22.90;48.30;;;;;;215856;1293;22579;-47
2022/04/04 03:11:22;;;;;;;4.40;2.40;;;22.80;48.00;;;;;;215206;1293;24283;-46
2022/04/04 03:16:37;;;;;;;3.90;2.00;;;22.70;48.10;;;;;;215776;1294;24472;-47
2022/04/04 03:21:46;;;;;;;4.50;1.90;;;22.70;48.20;;;;;;215783;1293;25428;-45
2022/04/04 03:26:53;;;;;;;3.80;2.10;;;22.60;48.50;;;;;;215826;1293;24437;-45
2022/04/04 03:31:58;;;;;;;5.00;1.90;;;22.50;48.20;;;;;;215746;1293;22558;-45
2022/04/04 03:37:03;;;;;;;3.60;1.90;;;22.50;48.30;;;;;;215567;1293;22788;-45
2022/04/04 03:42:07;;;;;;;3.80;2.30;;;22.50;48.40;;;;;;215777;1293;24348;-49
2022/04/04 03:47:11;;;;;;;2.90;1.70;;;22.60;48.50;;;;;;215904;1293;23059;-49
2022/04/04 03:52:15;;;;;;;4.10;2.10;;;23.00;48.20;;;;;;215698;1293;25365;-46
2022/04/04 03:57:19;;;;;;;3.40;1.60;;;23.20;47.90;;;;;;215043;1296;24079;-48
2022/04/04 04:02:26;;;;;;;4.50;1.90;;;23.40;47.00;;;;;;215749;1293;22688;-46
2022/04/04 04:07:30;;;;;;;3.70;1.80;;;23.50;46.60;;;;;;215569;1293;22652;-47
2022/04/04 04:12:34;;;;;;;3.40;1.70;;;23.60;46.40;;;;;;215653;1293;22777;-48
2022/04/04 04:17:38;;;;;;;3.70;1.80;;;23.60;46.30;;;;;;215531;1294;23063;-47
2022/04/04 04:22:42;;;;;;;5.40;1.80;;;23.70;46.30;;;;;;215493;1293;25397;-48
2022/04/04 04:27:46;;;;;;;3.50;1.70;;;23.70;45.40;;;;;;215895;1292;24773;-47
2022/04/04 04:32:51;;;;;;;3.20;1.70;;;23.80;46.10;;;;;;215575;1293;22585;-44
2022/04/04 04:37:55;;;;;;;5.20;1.70;;;23.80;45.90;;;;;;215767;1293;25540;-46
2022/04/04 04:42:59;;;;;;;3.40;1.60;;;23.80;45.70;;;;;;215937;1294;22587;-47
2022/04/04 04:48:03;;;;;;;2.80;1.50;;;23.80;45.60;;;;;;215400;1293;351429;-51
2022/04/04 04:53:07;;;;;;;4.40;1.70;;;23.80;45.60;;;;;;215879;1293;25552;-51
2022/04/04 04:58:10;;;;;;;3.60;2.00;;;23.80;45.50;;;;;;215716;1294;22592;-48
2022/04/04 05:03:26;;;;;;;4.70;1.90;;;23.80;45.50;;;;;;215031;1296;22590;-47
2022/04/04 05:08:30;;;;;;;3.30;1.60;;;23.90;45.70;;;;;;215743;1293;26720;-48
2022/04/04 05:13:34;;;;;;;2.90;1.70;;;23.90;45.50;;;;;;215631;1294;22632;-47
2022/04/04 05:18:38;;;;;;;2.80;1.70;;;23.90;45.40;;;;;;215662;1293;22587;-47
2022/04/04 05:23:41;;;;;;;2.20;1.40;;;23.90;45.50;;;;;;215275;1294;23972;-46
2022/04/04 05:28:50;;;;;;;3.00;1.70;;;23.90;45.80;;;;;;215855;1293;22604;-48
2022/04/04 05:33:54;;;;;;;2.00;1.40;;;23.90;45.60;;;;;;215893;1294;22665;-47
2022/04/04 05:38:58;;;;;;;3.90;1.60;;;23.90;45.90;;;;;;215889;1294;22596;-47
2022/04/04 05:44:05;;;;;;;2.90;1.70;;;23.80;45.60;;;;;;215669;1293;22571;-49
2022/04/04 05:49:08;;;;;;;3.70;1.60;;;23.80;45.60;;;;;;215837;1293;24271;-49
2022/04/04 05:54:14;;;;;;;2.10;1.40;;;23.60;45.80;;;;;;215771;1293;24324;-49
2022/04/04 05:59:21;;;;;;;6.60;2.20;;;23.60;46.40;;;;;;215724;1293;22586;-48
2022/04/04 06:04:25;;;;;;;3.80;1.70;;;23.60;47.00;;;;;;215207;1296;24293;-47
2022/04/04 06:09:29;;;;;;;10.10;1.70;;;23.50;47.10;;;;;;215938;1293;22667;-46
2022/04/04 06:14:32;;;;;;;10.50;1.90;;;23.30;47.70;;;;;;215845;1294;24319;-49
2022/04/04 06:19:36;;;;;;;3.70;1.80;;;23.30;47.80;;;;;;215657;1293;22596;-47
2022/04/04 06:24:51;;;;;;;6.20;1.80;;;23.30;48.10;;;;;;215777;1293;22563;-49
2022/04/04 06:29:54;;;;;;;4.50;1.50;;;23.20;48.40;;;;;;215442;1295;22773;-48
2022/04/04 06:34:58;;;;;;;5.50;1.60;;;23.10;48.60;;;;;;214934;1293;24423;-46
2022/04/04 06:40:03;;;;;;;5.50;1.90;;;23.10;48.50;;;;;;215798;1293;25022;-49
2022/04/04 06:45:09;;;;;;;7.20;1.80;;;23.00;49.10;;;;;;216372;1293;25321;-51
2022/04/04 06:50:15;;;;;;;3.20;1.30;;;22.90;49.50;;;;;;216030;1294;22655;-46
2022/04/04 06:55:19;;;;;;;6.60;1.60;;;22.80;49.60;;;;;;215457;1293;25247;-48
2022/04/04 07:00:24;;;;;;;6.50;2.20;;;22.80;49.70;;;;;;215105;1293;22743;-49
2022/04/04 07:05:28;;;;;;;8.30;2.00;;;22.70;47.40;;;;;;215725;1293;22579;-49
2022/04/04 07:10:32;;;;;;;6.10;1.80;;;22.70;47.30;;;;;;215526;1293;25370;-46
2022/04/04 07:15:36;;;;;;;4.20;1.50;;;22.70;47.50;;;;;;215534;1294;25299;-47
2022/04/04 07:20:41;;;;;;;6.60;1.90;;;22.70;47.20;;;;;;215772;1293;25640;-48
2022/04/04 07:25:52;;;;;;;5.70;1.60;;;22.60;47.10;;;;;;215917;1293;22589;-47
2022/04/04 07:31:06;;;;;;;5.80;2.00;;;22.60;47.10;;;;;;215657;1293;24482;-48
2022/04/04 07:36:17;;;;;;;3.80;1.70;;;22.50;47.10;;;;;;215700;1293;25445;-46
2022/04/04 07:41:25;;;;;;;4.10;1.80;;;22.50;46.80;;;;;;215567;1293;22586;-47
2022/04/04 07:46:31;;;;;;;5.60;1.90;;;22.40;47.10;;;;;;215918;1293;24240;-47
2022/04/04 07:51:35;;;;;;;3.60;1.50;;;22.40;47.10;;;;;;215689;1293;22578;-46
2022/04/04 07:56:38;;;;;;;2.70;1.50;;;22.40;47.10;;;;;;215704;1293;24026;-47
2022/04/04 08:01:42;;;;;;;3.10;1.60;;;22.60;46.60;;;;;;215368;1293;24430;-48
2022/04/04 08:06:46;;;;;;;3.40;1.40;;;22.90;46.50;;;;;;215978;1294;24224;-47
2022/04/04 08:11:50;;;;;;;6.60;2.30;;;23.00;45.90;;;;;;215234;1292;22767;-49
2022/04/04 08:16:54;;;;;;;6.80;1.70;;;23.10;45.80;;;;;;215365;1292;25391;-47
2022/04/04 08:21:58;;;;;;;7.10;2.10;;;23.10;46.30;;;;;;215962;1293;24347;-46
2022/04/04 08:27:02;;;;;;;6.00;2.00;;;23.10;45.90;;;;;;215701;1293;25397;-46
2022/04/04 08:32:06;;;;;;;5.80;1.60;;;23.10;46.30;;;;;;215123;1296;25293;-46
2022/04/04 08:37:12;;;;;;;5.40;2.00;;;23.10;45.60;;;;;;215658;1293;22585;-46
2022/04/04 08:42:16;;;;;;;3.70;1.70;;;23.10;45.80;;;;;;215876;1293;22575;-45
2022/04/04 08:47:22;;;;;;;4.50;1.50;;;23.20;46.10;;;;;;215691;1293;22588;-49
2022/04/04 08:52:27;;;;;;;3.40;1.80;;;23.20;46.40;;;;;;215918;1293;22572;-46
2022/04/04 08:57:31;;;;;;;5.70;2.10;;;23.40;45.60;;;;;;215756;1293;22580;-46
2022/04/04 09:02:34;;;;;;;5.10;1.60;;;23.50;45.30;;;;;;215895;1294;22586;-47
2022/04/04 09:08:05;;;;;;;5.10;1.60;;;23.50;45.00;;;;;;215711;1293;24343;-47
2022/04/04 09:13:22;;;;;;;4.10;1.70;;;23.60;44.80;;;;;;215763;1293;24481;-47
2022/04/04 09:18:41;;;;;;;3.70;1.60;;;23.70;44.50;;;;;;215239;1296;24470;-47
2022/04/04 09:23:50;;;;;;;4.90;1.80;;;23.80;44.30;;;;;;215793;1293;22767;-47
2022/04/04 09:28:56;;;;;;;4.90;2.10;;;23.80;44.20;;;;;;215171;1293;24423;-48
2022/04/04 09:34:02;;;;;;;7.00;1.50;;;23.80;44.30;;;;;;215836;1294;22582;-46
2022/04/04 09:39:10;;;;;;;5.10;1.70;;;23.80;43.70;;;;;;215784;1293;25579;-48
2022/04/04 09:44:16;;;;;;;2.90;1.30;;;23.70;43.70;;;;;;215786;1293;22780;-46
2022/04/04 09:49:20;;;;;;;3.20;1.60;;;23.70;43.90;;;;;;215882;1294;25930;-48
2022/04/04 09:54:28;;;;;;;3.30;1.60;;;23.70;44.00;;;;;;215724;1293;24275;-47
2022/04/04 09:59:37;;;;;;;3.10;1.50;;;23.70;44.00;;;;;;215403;1293;25218;-49
2022/04/04 10:04:44;;;;;;;3.40;1.40;;;23.70;44.00;;;;;;215300;1293;22520;-47
2022/04/04 10:09:48;;;;;;;3.50;1.60;;;23.70;44.10;;;;;;215817;1293;25378;-48
2022/04/04 10:14:52;;;;;;;4.40;1.40;;;23.70;44.40;;;;;;216128;1293;22548;-46
2022/04/04 10:20:00;;;;;;;2.70;1.50;;;23.60;44.00;;;;;;215704;1293;24363;-47
2022/04/04 10:25:09;;;;;;;3.10;1.60;;;23.60;43.90;;;;;;215224;1296;24301;-47
2022/04/04 10:30:18;;;;;;;3.80;1.60;;;23.70;43.90;;;;;;215650;1292;22900;-48
2022/04/04 10:35:25;;;;;;;4.50;1.70;;;23.60;43.80;;;;;;215519;1294;22657;-50
2022/04/04 10:40:31;;;;;;;4.80;1.60;;;23.70;43.40;;;;;;215790;1293;22596;-49
2022/04/04 10:45:53;;;;;;;3.80;1.70;;;23.80;43.30;;;;;;215914;1293;25603;-47
2022/04/04 10:51:18;;;;;;;2.70;1.30;;;23.90;43.20;;;;;;216003;1294;24263;-46
2022/04/04 10:56:28;;;;;;;3.30;1.80;;;23.90;43.10;;;;;;215777;1293;26787;-48
2022/04/04 11:01:34;;;;;;;3.20;1.80;;;24.00;43.20;;;;;;215590;1294;24263;-47
2022/04/04 11:12:12;;;;;;;2.90;1.50;;;24.00;43.40;;;;;;215323;1293;24426;-48
2022/04/04 11:23:04;;;;;;;9.40;2.00;;;23.90;43.70;;;;;;215806;1293;22749;-47
2022/04/04 11:28:06;;;;;;;3.10;1.70;;;23.80;43.80;;;;;;215545;1293;22601;-48
2022/04/04 11:33:17;;;;;;;3.60;1.70;;;23.70;43.90;;;;;;215848;1293;24265;-48
2022/04/04 11:38:22;;;;;;;3.80;1.60;;;23.70;44.80;;;;;;215511;1293;22702;-50
2022/04/04 11:43:27;;;;;;;4.70;1.60;;;23.70;45.40;;;;;;215624;1293;22574;-47
2022/04/04 11:48:39;;;;;;;8.40;3.00;;;23.70;46.30;;;;;;216022;1294;23106;-49
2022/04/04 11:53:44;;;;;;;39.00;9.10;;;23.60;46.70;;;;;;216116;1293;23197;-46
2022/04/04 11:58:54;;;;;;;26.70;7.60;;;23.60;48.20;;;;;;215773;1293;22586;-47
2022/04/04 12:04:01;;;;;;;31.50;9.60;;;23.60;48.60;;;;;;216158;1293;24532;-48
2022/04/04 12:09:10;;;;;;;35.30;8.70;;;23.50;49.50;;;;;;215704;1293;22570;-47
2022/04/04 12:14:16;;;;;;;27.60;7.80;;;23.40;49.20;;;;;;216127;1293;25307;-47
2022/04/04 12:19:20;;;;;;;33.20;8.60;;;23.40;48.80;;;;;;215818;1293;25575;-50
2022/04/04 12:29:47;;;;;;;27.10;7.70;;;23.40;49.80;;;;;;215865;1294;24299;-48
2022/04/04 12:34:59;;;;;;;27.70;7.40;;;23.40;50.20;;;;;;215702;1294;22666;-50
2022/04/04 12:40:21;;;;;;;24.30;6.70;;;23.30;50.20;;;;;;215798;1293;24294;-48
2022/04/04 12:45:30;;;;;;;26.20;6.80;;;23.30;49.70;;;;;;216025;1294;22595;-47
2022/04/04 12:50:42;;;;;;;21.50;6.60;;;23.20;49.60;;;;;;216022;1294;22568;-46
2022/04/04 12:56:08;;;;;;;23.10;6.10;;;23.20;49.50;;;;;;216025;1293;24345;-51
2022/04/04 13:01:15;;;;;;;23.80;6.40;;;23.20;49.80;;;;;;215948;1292;25433;-49
2022/04/04 13:06:23;;;;;;;24.40;6.60;;;23.10;49.80;;;;;;215992;1293;24881;-46
2022/04/04 13:11:28;;;;;;;23.00;6.10;;;23.10;49.40;;;;;;215772;1293;22724;-47
2022/04/04 13:17:04;;;;;;;15.50;5.70;;;23.00;48.40;;;;;;216074;1294;23944;-48
2022/04/04 13:22:12;;;;;;;15.50;5.90;;;23.00;48.10;;;;;;216052;1294;25328;-50
2022/04/04 13:27:22;;;;;;;16.30;5.80;;;23.00;47.80;;;;;;216212;1294;27547;-50
2022/04/04 13:32:31;;;;;;;14.90;5.30;;;23.00;47.20;;;;;;216106;1294;24558;-49
2022/04/04 13:37:44;;;;;;;17.40;5.30;;;22.90;47.50;;;;;;216201;1294;25522;-48
2022/04/04 13:43:02;;;;;;;16.30;5.30;;;22.90;47.80;;;;;;216161;1293;24344;-48
2022/04/04 13:48:18;;;;;;;17.50;5.60;;;22.90;47.30;;;;;;216158;1294;24156;-47
2022/04/04 13:53:25;;;;;;;13.00;4.80;;;22.80;47.20;;;;;;216248;1294;22641;-49
2022/04/04 13:58:34;;;;;;;11.00;4.80;;;22.90;47.00;;;;;;216128;1294;22852;-48
2022/04/04 14:03:43;;;;;;;12.90;4.70;;;22.70;43.70;;;;;;215976;1294;22572;-46
2022/04/04 14:08:53;;;;;;;11.30;4.00;;;22.70;43.90;;;;;;215440;1294;22622;-48
2022/04/04 14:13:58;;;;;;;15.50;5.00;;;22.80;44.80;;;;;;215789;1296;22652;-47
2022/04/04 14:19:13;;;;;;;13.30;4.60;;;22.80;45.00;;;;;;215965;1294;22728;-48
2022/04/04 14:24:27;;;;;;;9.10;4.20;;;22.70;45.10;;;;;;215791;1294;23946;-50
2022/04/04 14:29:33;;;;;;;10.30;4.50;;;22.60;45.40;;;;;;215958;1294;24459;-50
2022/04/04 14:34:37;;;;;;;9.40;4.30;;;22.60;45.10;;;;;;215953;1296;22655;-49
2022/04/04 14:39:43;;;;;;;10.40;4.40;;;22.60;45.30;;;;;;215980;1294;24504;-47
2022/04/04 14:44:56;;;;;;;10.00;3.70;;;22.50;45.10;;;;;;215687;1294;25535;-48
2022/04/04 14:50:16;;;;;;;11.10;4.20;;;22.50;45.50;;;;;;216121;1293;25347;-47
2022/04/04 14:55:26;;;;;;;11.00;3.90;;;22.50;45.10;;;;;;216058;1295;22609;-48
2022/04/04 15:00:35;;;;;;;8.40;4.00;;;22.50;44.60;;;;;;215910;1296;25359;-46
2022/04/04 15:06:08;;;;;;;15.90;4.50;;;22.50;44.90;;;;;;215823;1294;24336;-49
2022/04/04 15:11:36;;;;;;;9.10;3.30;;;22.40;47.20;;;;;;215538;1294;22793;-48
2022/04/04 15:16:47;;;;;;;7.70;3.60;;;22.40;50.50;;;;;;215925;1294;24361;-48
2022/04/04 15:21:59;;;;;;;12.90;3.70;;;22.40;52.50;;;;;;215927;1294;24393;-50
2022/04/04 15:27:07;;;;;;;12.80;4.00;;;22.40;53.00;;;;;;215778;1294;24271;-46
2022/04/04 15:32:11;;;;;;;11.30;3.90;;;22.40;53.60;;;;;;216024;1294;22595;-51
2022/04/04 15:37:17;;;;;;;8.40;3.30;;;22.40;53.10;;;;;;215858;1296;22588;-46
2022/04/04 15:42:21;;;;;;;9.80;2.90;;;22.40;52.80;;;;;;216132;1294;22617;-48
2022/04/04 15:47:25;;;;;;;14.30;3.50;;;22.40;52.00;;;;;;216165;1294;25414;-48
2022/04/04 15:52:28;;;;;;;12.20;3.40;;;22.40;51.40;;;;;;215828;1294;22575;-47
2022/04/04 15:57:35;;;;;;;7.40;3.10;;;22.40;51.80;;;;;;215613;1294;24104;-50
2022/04/04 16:02:42;;;;;;;8.20;2.70;;;22.30;52.70;;;;;;215594;1294;22742;-53
2022/04/04 16:07:47;;;;;;;8.60;2.80;;;22.20;52.30;;;;;;215674;1296;24360;-50
2022/04/04 16:12:53;;;;;;;8.80;3.10;;;22.20;53.70;;;;;;215305;1293;24418;-51
2022/04/04 16:17:59;;;;;;;10.80;3.10;;;22.60;53.80;;;;;;216081;1294;24284;-53
2022/04/04 16:23:03;;;;;;;12.80;3.60;;;22.90;54.50;;;;;;215689;1294;22664;-51
2022/04/04 16:28:08;;;;;;;22.90;3.40;;;23.00;54.40;;;;;;215954;1294;23462;-48
2022/04/04 16:33:13;;;;;;;16.80;3.70;;;23.20;53.00;;;;;;216068;1294;24120;-47
2022/04/04 16:38:27;;;;;;;13.20;4.40;;;23.30;53.20;;;;;;213509;1306;542994;-46
2022/04/04 16:43:32;;;;;;;11.60;3.00;;;23.40;52.20;;;;;;218657;1280;24338;-52
2022/04/04 16:48:37;;;;;;;15.80;3.20;;;23.30;53.60;;;;;;219368;1273;288011;-52
2022/04/04 16:53:44;;;;;;;8.00;2.90;;;23.40;54.90;;;;;;219904;1271;25512;-52
2022/04/04 16:58:48;;;;;;;13.10;3.70;;;23.50;55.50;;;;;;219771;1273;24266;-48
2022/04/04 17:03:52;;;;;;;11.20;3.20;;;23.60;55.90;;;;;;219877;1273;22747;-46
2022/04/04 17:09:04;;;;;;;15.00;3.50;;;23.70;56.50;;;;;;219730;1273;24042;-48
2022/04/04 17:14:18;;;;;;;10.40;3.30;;;23.80;55.70;;;;;;219694;1273;25634;-51
2022/04/04 17:19:28;;;;;;;15.50;2.80;;;23.80;56.90;;;;;;219325;1273;22535;-47
2022/04/04 17:24:38;;;;;;;;;;;23.70;55.50;;;;;;220106;1274;24399;-50
2022/04/04 17:29:56;;;;;;;8.20;2.90;;;23.70;55.60;;;;;;219583;1273;26504;-47
2022/04/04 17:35:00;;;;;;;6.30;2.30;;;23.60;54.80;;;;;;219765;1271;22626;-46
2022/04/04 17:40:07;;;;;;;8.10;2.30;;;23.50;53.80;;;;;;219868;1271;22756;-51
2022/04/04 17:45:11;;;;;;;10.80;3.00;;;23.40;54.20;;;;;;219313;1271;22482;-49
2022/04/04 17:50:19;;;;;;;10.50;2.80;;;23.30;53.00;;;;;;219534;1271;22877;-46
2022/04/04 17:55:24;;;;;;;9.10;2.50;;;23.20;52.70;;;;;;219497;1271;22548;-46
2022/04/04 18:00:29;;;;;;;7.60;2.50;;;23.10;52.30;;;;;;219528;1271;22704;-45
2022/04/04 18:05:38;;;;;;;6.70;2.40;;;23.10;52.70;;;;;;219686;1270;24116;-50
2022/04/04 18:10:42;;;;;;;5.00;2.60;;;22.90;52.30;;;;;;219937;1270;22559;-50
2022/04/04 18:15:49;;;;;;;9.40;2.80;;;22.80;52.30;;;;;;219865;1271;24325;-50
2022/04/04 18:21:04;;;;;;;7.70;2.10;;;22.70;51.80;;;;;;219677;1271;22926;-46
2022/04/04 18:26:22;;;;;;;7.40;2.40;;;22.60;51.70;;;;;;219427;1271;22672;-45
2022/04/04 18:32:11;;;;;;;13.50;3.10;;;22.60;52.00;;;;;;213920;1305;542737;-52
2022/04/04 18:37:22;;;;;;;7.50;2.70;;;22.60;52.50;;;;;;218807;1279;25414;-50
2022/04/04 18:42:45;;;;;;;12.90;2.70;;;22.50;52.80;;;;;;218598;1279;343086;-48
2022/04/04 18:47:55;;;;;;;9.00;2.30;;;22.40;52.20;;;;;;219286;1276;23445;-49
2022/04/04 18:53:00;;;;;;;9.80;2.40;;;22.40;52.20;;;;;;219808;1276;25252;-52
2022/04/04 18:58:11;;;;;;;10.10;2.70;;;22.30;52.50;;;;;;219902;1276;24298;-50
2022/04/04 19:03:28;;;;;;;11.90;3.50;;;22.30;53.50;;;;;;218986;1277;25345;-49
2022/04/04 19:08:34;;;;;;;11.50;2.90;;;22.30;54.00;;;;;;219121;1276;22657;-48
2022/04/04 19:13:43;;;;;;;10.20;3.60;;;22.20;54.50;;;;;;219066;1277;24327;-47
2022/04/04 19:18:51;;;;;;;6.90;2.50;;;22.10;53.60;;;;;;218947;1278;22627;-46
2022/04/04 19:24:02;;;;;;;7.10;2.60;;;22.10;54.30;;;;;;219177;1278;22572;-44
2022/04/04 19:29:28;;;;;;;6.90;2.40;;;22.10;54.50;;;;;;218993;1278;22614;-47
2022/04/04 19:35:13;;;;;;;10.60;2.40;;;22.00;54.40;;;;;;219041;1277;25266;-51
2022/04/04 19:40:27;;;;;;;6.50;2.50;;;22.20;54.30;;;;;;218731;1278;24362;-53
2022/04/04 19:45:32;;;;;;;5.90;2.10;;;22.50;53.10;;;;;;219110;1277;23640;-49
2022/04/04 19:50:56;;;;;;;10.10;2.50;;;22.80;53.20;;;;;;218887;1277;22958;-48
2022/04/04 19:56:02;;;;;;;12.50;2.80;;;23.10;52.60;;;;;;218945;1277;22621;-48
2022/04/04 20:01:08;;;;;;;14.00;2.70;;;23.20;52.20;;;;;;219085;1278;22589;-48
2022/04/04 20:06:19;;;;;;;8.40;2.90;;;23.30;52.50;;;;;;219129;1277;25368;-47
2022/04/04 20:11:34;;;;;;;11.20;3.20;;;23.40;52.20;;;;;;221105;1267;23303;-51
2022/04/04 20:16:41;;;;;;;8.40;3.40;;;23.50;51.60;;;;;;220584;1267;24367;-48
2022/04/04 20:21:54;;;;;;;13.30;3.50;;;23.50;51.90;;;;;;220288;1268;24328;-49
2022/04/04 20:27:01;;;;;;;17.50;4.30;;;23.50;51.70;;;;;;220784;1266;25235;-47
2022/04/04 20:32:12;;;;;;;11.80;4.10;;;23.60;51.40;;;;;;220263;1266;22525;-47
2022/04/04 20:37:19;;;;;;;18.20;4.00;;;23.70;51.50;;;;;;220324;1266;22564;-46
2022/04/04 20:42:28;;;;;;;11.30;3.90;;;23.70;51.60;;;;;;220359;1267;22534;-46
2022/04/04 20:47:32;;;;;;;13.20;3.70;;;23.80;50.90;;;;;;220386;1266;25586;-57
2022/04/04 20:52:37;;;;;;;14.00;4.10;;;23.80;50.70;;;;;;220367;1268;22568;-53
2022/04/04 20:57:41;;;;;;;16.80;4.40;;;23.70;49.90;;;;;;220581;1267;23726;-55
2022/04/04 21:02:47;;;;;;;10.40;3.50;;;23.60;49.80;;;;;;220591;1266;22847;-55
2022/04/04 21:07:51;;;;;;;12.60;3.30;;;23.60;50.20;;;;;;220319;1266;22715;-53
2022/04/04 21:12:55;;;;;;;20.20;4.30;;;23.50;50.40;;;;;;220333;1266;24371;-52
2022/04/04 21:18:01;;;;;;;17.40;4.60;;;23.50;53.60;;;;;;220273;1267;22569;-54
2022/04/04 21:23:06;;;;;;;15.70;4.40;;;23.50;54.40;;;;;;220521;1267;22810;-58
2022/04/04 21:28:10;;;;;;;16.80;4.70;;;23.40;54.50;;;;;;221051;1267;23170;-55
2022/04/04 21:33:14;;;;;;;18.60;4.40;;;23.30;56.50;;;;;;220325;1266;22553;-55
2022/04/04 21:38:19;;;;;;;15.70;3.90;;;23.20;57.60;;;;;;220428;1266;24310;-55
2022/04/04 21:43:25;;;;;;;14.20;4.60;;;23.20;57.10;;;;;;220741;1266;23236;-53
2022/04/04 21:48:39;;;;;;;15.60;4.00;;;23.20;56.80;;;;;;220622;1266;22679;-54
2022/04/04 21:53:49;;;;;;;15.90;4.80;;;23.10;56.50;;;;;;220468;1266;24377;-56
2022/04/04 21:59:02;;;;;;;13.90;3.70;;;23.00;56.70;;;;;;220224;1266;24308;-53
2022/04/04 22:04:07;;;;;;;13.30;4.30;;;22.90;56.10;;;;;;220293;1266;25658;-59
2022/04/04 22:09:15;;;;;;;13.60;3.70;;;22.90;56.20;;;;;;220487;1266;22589;-56
2022/04/04 22:14:23;;;;;;;11.30;3.50;;;22.80;55.90;;;;;;220414;1268;22648;-55
2022/04/04 22:19:31;;;;;;;14.20;3.50;;;22.60;56.20;;;;;;220734;1267;22527;-48
2022/04/04 22:24:40;;;;;;;10.90;3.70;;;22.60;57.10;;;;;;220410;1266;24097;-47
2022/04/04 22:29:44;;;;;;;18.00;3.80;;;22.70;57.30;;;;;;220688;1267;23180;-48
2022/04/04 22:34:47;;;;;;;15.40;4.00;;;22.60;57.00;;;;;;220148;1266;24390;-47
2022/04/04 22:39:51;;;;;;;11.50;3.50;;;22.60;57.00;;;;;;220693;1266;22562;-47
2022/04/04 22:44:55;;;;;;;9.20;3.30;;;22.60;56.90;;;;;;220568;1266;24295;-48
2022/04/04 22:49:59;;;;;;;12.40;4.00;;;22.50;57.00;;;;;;220723;1266;22534;-49
2022/04/04 22:55:05;;;;;;;8.40;3.50;;;22.50;57.00;;;;;;220782;1268;24306;-50
2022/04/04 23:00:10;;;;;;;11.80;4.00;;;22.50;57.10;;;;;;220932;1268;23013;-46
2022/04/04 23:05:14;;;;;;;7.20;3.20;;;22.50;57.30;;;;;;220742;1268;24408;-50
2022/04/04 23:10:19;;;;;;;8.20;3.30;;;22.40;57.20;;;;;;220488;1267;25515;-47
2022/04/04 23:15:22;;;;;;;8.80;3.90;;;22.40;57.30;;;;;;220660;1267;22547;-47
2022/04/04 23:20:26;;;;;;;11.70;3.60;;;22.40;57.20;;;;;;220712;1267;22555;-47
2022/04/04 23:25:31;;;;;;;9.10;3.40;;;22.40;57.30;;;;;;220713;1266;24300;-45
2022/04/04 23:30:56;;;;;;;9.40;3.60;;;22.40;57.20;;;;;;220647;1266;23179;-46
2022/04/04 23:36:01;;;;;;;6.00;3.00;;;22.40;57.60;;;;;;220832;1267;22546;-48
2022/04/04 23:41:05;;;;;;;7.80;3.50;;;22.30;57.40;;;;;;220348;1267;24410;-46
2022/04/04 23:46:09;;;;;;;10.50;3.20;;;22.30;57.40;;;;;;220491;1268;24429;-50
2022/04/04 23:51:34;;;;;;;8.40;3.00;;;22.20;57.20;;;;;;220508;1267;23166;-47
2022/04/04 23:56:39;;;;;;;7.30;3.60;;;22.20;57.00;;;;;;221045;1267;24100;-47
